createdAt,value
2023-04-02T00:00:24.005Z,8.88
2023-04-02T00:03:06.064Z,8.88
2023-04-02T00:06:00.574Z,8.90
2023-04-02T00:08:46.864Z,8.91
2023-04-02T00:11:38.223Z,8.90
2023-04-02T00:14:31.911Z,8.86
2023-04-02T00:17:13.863Z,8.81
2023-04-02T00:19:54.430Z,8.79
2023-04-02T00:22:38.995Z,8.74
2023-04-02T00:25:25.433Z,8.70
2023-04-02T00:28:03.674Z,8.70
2023-04-02T00:30:53.634Z,8.64
2023-04-02T00:33:40.167Z,8.52
2023-04-02T00:36:29.945Z,8.60
2023-04-02T00:39:13.386Z,8.60
2023-04-02T00:42:06.247Z,8.58
2023-04-02T00:45:20.627Z,8.59
2023-04-02T00:48:21.728Z,8.58
2023-04-02T00:51:05.687Z,8.59
2023-04-02T00:53:39.730Z,8.57
2023-04-02T00:56:31.553Z,8.54
2023-04-02T00:59:06.213Z,8.50
2023-04-02T01:01:44.257Z,8.52
2023-04-02T01:04:40.008Z,8.49
2023-04-02T01:07:18.734Z,8.44
2023-04-02T01:10:29.165Z,8.46
2023-04-02T01:13:20.890Z,8.43
2023-04-02T01:16:04.960Z,8.36
2023-04-02T01:18:53.454Z,8.38
2023-04-02T01:22:00.822Z,8.35
2023-04-02T01:24:40.200Z,8.30
2023-04-02T01:27:19.835Z,8.29
2023-04-02T01:30:02.222Z,8.28
2023-04-02T01:32:43.893Z,8.29
2023-04-02T01:35:21.300Z,8.24
2023-04-02T01:38:10.303Z,8.25
2023-04-02T01:41:01.854Z,8.26
2023-04-02T01:43:46.166Z,8.26
2023-04-02T01:46:48.998Z,8.25
2023-04-02T01:49:27.287Z,8.23
2023-04-02T01:52:18.958Z,8.20
2023-04-02T01:54:53.375Z,8.18
2023-04-02T01:57:36.343Z,8.13
2023-04-02T02:00:21.457Z,8.07
2023-04-02T02:03:08.583Z,8.08
2023-04-02T02:05:53.057Z,8.14
2023-04-02T02:08:55.405Z,8.12
2023-04-02T02:11:40.927Z,8.05
2023-04-02T02:14:28.405Z,8.09
2023-04-02T02:17:14.242Z,8.09
2023-04-02T02:20:04.784Z,8.06
2023-04-02T02:22:45.521Z,8.07
2023-04-02T02:25:24.852Z,8.07
2023-04-02T02:28:22.666Z,8.05
2023-04-02T02:31:20.046Z,8.05
2023-04-02T02:34:10.349Z,8.02
2023-04-02T02:36:55.935Z,7.91
2023-04-02T02:39:43.287Z,7.94
2023-04-02T02:42:26.842Z,7.95
2023-04-02T02:45:03.931Z,7.92
2023-04-02T02:47:48.581Z,7.88
2023-04-02T02:50:31.351Z,7.84
2023-04-02T02:53:17.461Z,7.80
2023-04-02T02:56:01.067Z,7.74
2023-04-02T02:58:42.596Z,7.75
2023-04-02T03:01:27.579Z,7.68
2023-04-02T03:04:00.124Z,7.65
2023-04-02T03:06:42.122Z,7.49
2023-04-02T03:09:29.881Z,7.63
2023-04-02T03:12:14.365Z,7.63
2023-04-02T03:15:00.130Z,7.59
2023-04-02T03:17:44.660Z,7.63
2023-04-02T03:20:25.219Z,7.61
2023-04-02T03:23:17.439Z,7.64
2023-04-02T03:26:10.351Z,7.64
2023-04-02T03:28:56.903Z,7.66
2023-04-02T03:31:38.052Z,7.66
2023-04-02T03:34:23.948Z,7.61
2023-04-02T03:37:10.712Z,7.60
2023-04-02T03:40:13.647Z,7.57
2023-04-02T03:43:05.577Z,7.49
2023-04-02T03:45:45.997Z,7.51
2023-04-02T03:48:36.142Z,7.43
2023-04-02T03:51:26.822Z,7.39
2023-04-02T03:54:04.788Z,7.32
2023-04-02T03:56:55.972Z,7.31
2023-04-02T04:00:01.829Z,7.11
2023-04-02T04:02:56.540Z,7.20
2023-04-02T04:05:36.994Z,7.19
2023-04-02T04:08:33.953Z,7.19
2023-04-02T04:11:14.709Z,7.16
2023-04-02T04:13:58.585Z,7.04
2023-04-02T04:16:41.253Z,7.08
2023-04-02T04:19:22.103Z,6.92
2023-04-02T04:22:02.543Z,7.06
2023-04-02T04:24:43.388Z,6.99
2023-04-02T04:27:35.199Z,6.96
2023-04-02T04:30:24.242Z,7.03
2023-04-02T04:33:05.937Z,7.07
2023-04-02T04:35:49.526Z,7.08
2023-04-02T04:38:39.919Z,7.11
2023-04-02T04:41:39.006Z,7.06
2023-04-02T04:44:24.296Z,7.08
2023-04-02T04:47:15.718Z,7.11
2023-04-02T04:50:04.815Z,7.12
2023-04-02T04:52:49.411Z,7.16
2023-04-02T04:55:37.762Z,7.16
2023-04-02T04:58:27.890Z,7.03
2023-04-02T05:01:12.190Z,6.91
2023-04-02T05:04:08.765Z,6.97
2023-04-02T05:07:00.612Z,7.03
2023-04-02T05:09:45.129Z,7.14
2023-04-02T05:12:34.672Z,7.18
2023-04-02T05:15:28.771Z,7.33
2023-04-02T05:18:25.991Z,7.46
2023-04-02T05:21:17.422Z,7.54
2023-04-02T05:24:12.396Z,7.64
2023-04-02T05:27:08.055Z,7.74
2023-04-02T05:30:08.471Z,7.85
2023-04-02T05:32:53.092Z,7.97
2023-04-02T05:35:35.962Z,8.10
2023-04-02T05:38:22.507Z,8.28
2023-04-02T05:41:26.181Z,8.37
2023-04-02T05:44:16.467Z,8.51
2023-04-02T05:47:00.470Z,8.56
2023-04-02T05:49:48.240Z,8.71
2023-04-02T05:52:36.939Z,8.79
2023-04-02T05:55:47.082Z,8.88
2023-04-02T05:58:45.307Z,9.01
2023-04-02T06:02:05.783Z,9.04
2023-04-02T06:04:58.287Z,9.09
2023-04-02T06:07:56.712Z,9.19
2023-04-02T06:10:35.772Z,9.28
2023-04-02T06:13:14.172Z,9.41
2023-04-02T06:15:54.264Z,9.49
2023-04-02T06:18:38.805Z,9.55
2023-04-02T06:21:12.880Z,9.44
2023-04-02T06:23:55.043Z,9.65
2023-04-02T06:26:47.372Z,9.73
2023-04-02T06:29:34.676Z,9.79
2023-04-02T06:32:23.547Z,9.76
2023-04-02T06:35:07.590Z,9.61
2023-04-02T06:37:46.233Z,9.83
2023-04-02T06:40:49.047Z,9.88
2023-04-02T06:43:46.168Z,9.91
2023-04-02T06:46:35.577Z,9.94
2023-04-02T06:49:26.439Z,10.02
2023-04-02T06:52:13.717Z,9.98
2023-04-02T06:55:12.345Z,10.14
2023-04-02T06:57:48.483Z,10.12
2023-04-02T07:00:43.524Z,10.28
2023-04-02T07:03:38.996Z,10.43
2023-04-02T07:06:37.508Z,10.53
2023-04-02T07:09:24.997Z,10.65
2023-04-02T07:12:05.379Z,10.72
2023-04-02T07:14:41.174Z,10.75
2023-04-02T07:17:22.824Z,10.85
2023-04-02T07:20:00.235Z,10.96
2023-04-02T07:22:42.402Z,11.00
2023-04-02T07:25:31.164Z,10.96
2023-04-02T07:28:15.388Z,11.24
2023-04-02T07:31:04.824Z,11.30
2023-04-02T07:33:42.229Z,11.42
2023-04-02T07:36:29.758Z,11.49
2023-04-02T07:39:24.796Z,11.60
2023-04-02T07:41:59.439Z,11.70
2023-04-02T07:44:40.126Z,11.77
2023-04-02T07:47:15.405Z,11.85
2023-04-02T07:49:56.521Z,11.90
2023-04-02T07:52:46.965Z,11.95
2023-04-02T07:55:38.176Z,12.01
2023-04-02T07:58:26.678Z,12.07
2023-04-02T08:01:05.921Z,12.07
2023-04-02T08:03:47.925Z,12.24
2023-04-02T08:06:30.278Z,12.28
2023-04-02T08:09:12.387Z,12.31
2023-04-02T08:11:58.650Z,12.34
2023-04-02T08:14:36.889Z,12.44
2023-04-02T08:17:13.181Z,12.54
2023-04-02T08:19:55.007Z,12.51
2023-04-02T08:23:01.682Z,12.79
2023-04-02T08:25:37.509Z,12.80
2023-04-02T08:28:32.887Z,12.82
2023-04-02T08:31:11.372Z,12.96
2023-04-02T08:33:46.238Z,13.00
2023-04-02T08:36:24.622Z,13.03
2023-04-02T08:39:02.224Z,12.96
2023-04-02T08:41:59.591Z,13.19
2023-04-02T08:45:22.988Z,13.28
2023-04-02T08:48:21.370Z,13.32
2023-04-02T08:51:00.234Z,13.35
2023-04-02T08:53:40.105Z,13.48
2023-04-02T08:56:35.070Z,13.56
2023-04-02T08:59:30.345Z,13.58
2023-04-02T09:02:31.182Z,13.56
2023-04-02T09:05:12.044Z,13.55
2023-04-02T09:07:54.751Z,13.55
2023-04-02T09:10:45.695Z,13.63
2023-04-02T09:13:33.889Z,13.76
2023-04-02T09:16:14.337Z,13.78
2023-04-02T09:19:05.986Z,13.96
2023-04-02T09:21:51.286Z,13.83
2023-04-02T09:24:33.447Z,14.12
2023-04-02T09:27:09.938Z,14.26
2023-04-02T09:29:54.906Z,14.40
2023-04-02T09:32:54.346Z,14.53
2023-04-02T09:35:39.443Z,14.48
2023-04-02T09:38:44.304Z,14.52
2023-04-02T09:41:39.376Z,14.41
2023-04-02T09:44:32.935Z,14.46
2023-04-02T09:47:12.115Z,14.53
2023-04-02T09:49:57.369Z,14.70
2023-04-02T09:52:47.201Z,14.49
2023-04-02T09:55:41.087Z,14.67
2023-04-02T09:58:26.154Z,14.78
2023-04-02T10:01:04.990Z,14.81
2023-04-02T10:03:55.478Z,14.91
2023-04-02T10:06:38.408Z,14.95
2023-04-02T10:09:39.539Z,14.94
2023-04-02T10:12:22.446Z,15.01
2023-04-02T10:15:00.287Z,15.09
2023-04-02T10:17:51.375Z,15.27
2023-04-02T10:20:50.420Z,15.24
2023-04-02T10:23:32.028Z,15.35
2023-04-02T10:26:34.212Z,15.21
2023-04-02T10:29:39.425Z,15.38
2023-04-02T10:32:29.203Z,15.52
2023-04-02T10:35:15.473Z,15.63
2023-04-02T10:38:14.380Z,15.64
2023-04-02T10:40:54.398Z,15.69
2023-04-02T10:44:13.136Z,15.70
2023-04-02T10:47:06.246Z,15.71
2023-04-02T10:49:58.256Z,15.64
2023-04-02T10:52:44.145Z,15.65
2023-04-02T10:55:42.237Z,15.75
2023-04-02T10:58:33.290Z,15.80
2023-04-02T11:01:24.220Z,15.87
2023-04-02T11:04:14.172Z,16.04
2023-04-02T11:07:13.201Z,16.43
2023-04-02T11:09:57.067Z,16.66
2023-04-02T11:12:51.667Z,16.78
2023-04-02T11:15:28.647Z,16.98
2023-04-02T11:18:33.808Z,17.16
2023-04-02T11:21:57.374Z,17.37
2023-04-02T11:24:51.237Z,17.44
2023-04-02T11:27:33.617Z,17.31
2023-04-02T11:30:22.838Z,17.43
2023-04-02T11:33:36.360Z,17.54
2023-04-02T11:37:00.034Z,17.89
2023-04-02T11:39:54.293Z,18.12
2023-04-02T11:42:44.766Z,17.98
2023-04-02T11:46:07.805Z,17.94
2023-04-02T11:48:48.550Z,17.65
2023-04-02T11:52:05.445Z,17.45
2023-04-02T11:54:47.837Z,17.19
2023-04-02T11:57:34.776Z,17.02
2023-04-02T12:00:32.305Z,16.99
2023-04-02T12:03:38.346Z,16.36
2023-04-02T12:06:29.526Z,15.54
2023-04-02T12:09:23.774Z,14.87
2023-04-02T12:12:25.012Z,14.62
2023-04-02T12:15:09.209Z,14.41
2023-04-02T12:17:46.337Z,13.90
2023-04-02T12:20:32.109Z,13.68
2023-04-02T12:23:43.591Z,13.36
2023-04-02T12:26:47.842Z,13.23
2023-04-02T12:29:34.882Z,13.08
2023-04-02T12:32:29.567Z,13.11
2023-04-02T12:35:15.044Z,13.09
2023-04-02T12:37:57.531Z,13.23
2023-04-02T12:40:45.218Z,13.22
2023-04-02T12:43:34.695Z,13.44
2023-04-02T12:46:21.437Z,13.55
2023-04-02T12:49:18.330Z,13.49
2023-04-02T12:55:06.770Z,13.80
2023-04-02T12:57:54.776Z,13.93
2023-04-02T13:00:42.129Z,14.03
2023-04-02T13:03:31.739Z,14.13
2023-04-02T13:06:23.676Z,14.17
2023-04-02T13:09:06.005Z,14.27
2023-04-02T13:11:59.650Z,14.36
2023-04-02T13:14:43.329Z,14.48
2023-04-02T13:17:47.205Z,14.59
2023-04-02T13:20:40.302Z,14.74
2023-04-02T13:23:54.382Z,14.87
2023-04-02T13:26:36.516Z,14.98
2023-04-02T13:29:24.850Z,15.17
2023-04-02T13:32:06.054Z,15.46
2023-04-02T13:34:46.942Z,15.80
2023-04-02T13:37:24.964Z,16.25
2023-04-02T13:40:05.456Z,16.65
2023-04-02T13:42:46.225Z,16.96
2023-04-02T13:45:34.480Z,17.34
2023-04-02T13:48:31.987Z,17.60
2023-04-02T13:51:24.259Z,17.55
2023-04-02T13:54:09.682Z,17.84
2023-04-02T13:56:48.139Z,18.09
2023-04-02T13:59:24.742Z,18.25
2023-04-02T14:02:09.246Z,18.48
2023-04-02T14:04:55.249Z,18.42
2023-04-02T14:07:47.948Z,18.30
2023-04-02T14:10:38.958Z,18.12
2023-04-02T14:16:46.836Z,17.96
2023-04-02T14:19:39.551Z,17.81
2023-04-02T14:22:41.242Z,18.20
2023-04-02T14:25:32.950Z,18.41
2023-04-02T14:28:25.558Z,18.78
2023-04-02T14:31:11.759Z,18.99
2023-04-02T14:33:58.800Z,18.97
2023-04-02T14:36:40.139Z,18.99
2023-04-02T14:39:32.833Z,18.90
2023-04-02T14:42:20.146Z,18.90
2023-04-02T14:45:02.301Z,18.56
2023-04-02T14:47:41.796Z,18.36
2023-04-02T14:50:38.330Z,18.18
2023-04-02T14:53:27.454Z,17.80
2023-04-02T14:56:12.955Z,17.56
2023-04-02T14:59:01.921Z,17.24
2023-04-02T15:01:45.386Z,17.21
2023-04-02T15:04:29.445Z,17.27
2023-04-02T15:07:13.503Z,17.17
2023-04-02T15:10:09.867Z,17.03
2023-04-02T15:12:59.936Z,16.95
2023-04-02T15:18:43.901Z,16.68
2023-04-02T15:21:55.830Z,16.79
2023-04-02T15:24:57.190Z,16.77
2023-04-02T15:28:14.829Z,16.67
2023-04-02T15:31:04.610Z,16.58
2023-04-02T15:33:59.037Z,16.51
2023-04-02T15:36:48.270Z,16.42
2023-04-02T15:39:41.278Z,16.22
2023-04-02T15:42:35.257Z,16.10
2023-04-02T15:45:45.327Z,16.07
2023-04-02T15:48:43.333Z,15.97
2023-04-02T15:51:35.291Z,15.81
2023-04-02T15:54:24.976Z,15.73
2023-04-02T15:57:15.051Z,15.56
2023-04-02T16:00:28.774Z,15.56
2023-04-02T16:03:38.122Z,15.44
2023-04-02T16:06:34.928Z,15.53
2023-04-02T16:09:22.475Z,15.30
2023-04-02T16:12:08.505Z,15.29
2023-04-02T16:14:49.559Z,15.35
2023-04-02T16:17:32.281Z,15.51
2023-04-02T16:20:26.427Z,15.62
2023-04-02T16:23:16.846Z,15.60
2023-04-02T16:26:00.234Z,15.78
2023-04-02T16:28:46.486Z,15.85
2023-04-02T16:31:32.521Z,15.95
2023-04-02T16:34:29.285Z,15.94
2023-04-02T16:37:18.530Z,15.70
2023-04-02T16:40:19.067Z,15.58
2023-04-02T16:42:59.879Z,15.67
2023-04-02T16:45:40.561Z,15.65
2023-04-02T16:48:34.026Z,15.64
2023-04-02T16:51:28.674Z,15.51
2023-04-02T16:54:15.582Z,15.41
2023-04-02T16:56:58.837Z,15.39
2023-04-02T16:59:44.687Z,15.40
2023-04-02T17:02:50.023Z,15.36
2023-04-02T17:05:49.696Z,15.19
2023-04-02T17:08:37.244Z,15.15
2023-04-02T17:11:31.755Z,15.12
2023-04-02T17:14:18.213Z,15.12
2023-04-02T17:17:00.128Z,15.09
2023-04-02T17:19:39.253Z,15.11
2023-04-02T17:22:21.505Z,15.07
2023-04-02T17:25:04.697Z,14.97
2023-04-02T17:27:50.287Z,14.99
2023-04-02T17:30:48.779Z,15.05
2023-04-02T17:33:29.159Z,15.01
2023-04-02T17:36:33.827Z,15.02
2023-04-02T17:39:25.917Z,14.92
2023-04-02T17:42:19.593Z,14.88
2023-04-02T17:45:21.433Z,14.79
2023-04-02T17:48:07.327Z,14.71
2023-04-02T17:50:57.030Z,14.74
2023-04-02T17:53:58.530Z,14.65
2023-04-02T17:56:52.998Z,14.69
2023-04-02T17:59:52.889Z,14.70
2023-04-02T18:02:51.733Z,14.60
2023-04-02T18:05:51.435Z,14.57
2023-04-02T18:08:34.158Z,14.54
2023-04-02T18:11:18.373Z,14.54
2023-04-02T18:14:03.192Z,14.44
2023-04-02T18:16:52.799Z,14.51
2023-04-02T18:19:45.573Z,14.44
2023-04-02T18:22:29.476Z,14.35
2023-04-02T18:25:32.224Z,14.46
2023-04-02T18:28:20.424Z,14.44
2023-04-02T18:31:19.566Z,14.42
2023-04-02T18:34:45.763Z,14.33
2023-04-02T18:37:47.318Z,14.32
2023-04-02T18:40:43.949Z,14.20
2023-04-02T18:43:36.428Z,14.17
2023-04-02T18:46:27.266Z,14.05
2023-04-02T18:49:09.633Z,13.74
2023-04-02T18:52:05.881Z,13.64
2023-04-02T18:54:48.143Z,13.81
2023-04-02T18:57:37.737Z,13.87
2023-04-02T19:00:33.190Z,13.90
2023-04-02T19:03:20.258Z,13.79
2023-04-02T19:06:07.405Z,13.72
2023-04-02T19:08:48.888Z,13.50
2023-04-02T19:11:32.330Z,13.70
2023-04-02T19:14:14.978Z,13.62
2023-04-02T19:17:17.121Z,13.52
2023-04-02T19:20:11.483Z,13.40
2023-04-02T19:22:58.953Z,13.25
2023-04-02T19:25:58.584Z,13.36
2023-04-02T19:29:03.375Z,13.28
2023-04-02T19:31:59.584Z,13.00
2023-04-02T19:34:42.391Z,13.19
2023-04-02T19:37:22.300Z,13.14
2023-04-02T19:40:19.377Z,13.10
2023-04-02T19:43:04.175Z,12.85
2023-04-02T19:45:49.819Z,12.99
2023-04-02T19:48:35.859Z,13.06
2023-04-02T19:51:21.070Z,13.04
2023-04-02T19:53:58.457Z,13.05
2023-04-02T19:56:42.166Z,13.01
2023-04-02T19:59:18.759Z,13.00
2023-04-02T20:02:12.723Z,12.93
2023-04-02T20:04:57.154Z,12.96
2023-04-02T20:07:42.690Z,12.99
2023-04-02T20:10:30.500Z,13.06
2023-04-02T20:13:24.564Z,13.05
2023-04-02T20:15:58.126Z,13.11
2023-04-02T20:18:41.935Z,13.12
2023-04-02T20:21:17.412Z,13.10
2023-04-02T20:23:54.414Z,13.14
2023-04-02T20:26:33.070Z,13.40
2023-04-02T20:29:09.979Z,13.47
2023-04-02T20:32:13.402Z,13.53
2023-04-02T20:35:04.981Z,13.57
2023-04-02T20:37:42.484Z,13.46
2023-04-02T20:40:19.583Z,13.49
2023-04-02T20:42:57.184Z,13.54
2023-04-02T20:45:34.747Z,13.39
2023-04-02T20:48:14.390Z,13.46
2023-04-02T20:50:58.857Z,13.46
2023-04-02T20:53:39.561Z,13.33
2023-04-02T20:56:25.825Z,13.42
2023-04-02T20:59:19.819Z,13.44
2023-04-02T21:01:53.791Z,13.45
2023-04-02T21:04:32.910Z,13.44
2023-04-02T21:07:23.712Z,13.41
2023-04-02T21:10:09.024Z,13.38
2023-04-02T21:12:56.738Z,13.38
2023-04-02T21:15:42.929Z,13.33
2023-04-02T21:18:23.454Z,13.18
2023-04-02T21:21:16.322Z,13.16
2023-04-02T21:23:58.068Z,13.17
2023-04-02T21:26:34.215Z,13.03
2023-04-02T21:29:13.419Z,12.98
2023-04-02T21:31:49.799Z,12.97
2023-04-02T21:34:24.578Z,12.81
2023-04-02T21:37:08.616Z,12.93
2023-04-02T21:40:02.524Z,12.81
2023-04-02T21:42:54.250Z,12.51
2023-04-02T21:45:31.055Z,12.50
2023-04-02T21:48:12.754Z,12.46
2023-04-02T21:50:54.091Z,12.34
2023-04-02T21:53:29.835Z,12.30
2023-04-02T21:56:13.156Z,12.22
2023-04-02T21:59:00.185Z,12.19
2023-04-02T22:01:46.741Z,12.18
2023-04-02T22:04:27.829Z,12.18
2023-04-02T22:07:07.697Z,12.11
2023-04-02T22:09:48.840Z,12.01
2023-04-02T22:12:29.992Z,12.00
2023-04-02T22:15:06.677Z,12.07
2023-04-02T22:17:59.425Z,12.06
2023-04-02T22:20:40.880Z,11.97
2023-04-02T22:23:30.275Z,11.91
2023-04-02T22:26:10.007Z,11.81
2023-04-02T22:28:56.727Z,11.82
2023-04-02T22:31:35.763Z,11.80
2023-04-02T22:34:23.225Z,11.82
2023-04-02T22:37:01.747Z,11.80
2023-04-02T22:39:50.354Z,11.61
2023-04-02T22:42:36.311Z,11.54
2023-04-02T22:45:26.181Z,11.53
2023-04-02T22:48:16.576Z,11.55
2023-04-02T22:51:01.658Z,11.51
2023-04-02T22:53:48.103Z,11.47
2023-04-02T22:56:23.336Z,11.47
2023-04-02T22:59:06.443Z,11.32
2023-04-02T23:01:46.552Z,11.41
2023-04-02T23:04:32.912Z,11.44
2023-04-02T23:07:20.940Z,11.42
2023-04-02T23:09:58.290Z,11.24
2023-04-02T23:12:33.393Z,11.35
2023-04-02T23:15:17.417Z,11.32
2023-04-02T23:18:11.719Z,11.32
2023-04-02T23:20:54.077Z,11.10
2023-04-02T23:23:33.341Z,11.06
2023-04-02T23:26:25.616Z,11.03
2023-04-02T23:29:10.223Z,10.96
2023-04-02T23:31:49.056Z,11.07
2023-04-02T23:34:36.068Z,11.02
2023-04-02T23:37:25.521Z,10.77
2023-04-02T23:40:05.495Z,10.89
2023-04-02T23:42:37.467Z,10.77
2023-04-02T23:45:20.419Z,10.88
2023-04-02T23:47:54.608Z,10.76
2023-04-02T23:50:44.610Z,10.53
2023-04-02T23:53:37.938Z,10.48
2023-04-02T23:56:27.679Z,10.59
2023-04-02T23:59:13.528Z,10.38
